PAJN/JNU METAR and TAF weather

Enter ICAO airport designator
Station Type Date Time Source
PAJN METAR 2020/01/18 23:53 UTC NOAA

PAJN 182353Z 00000KT 10SM SCT070 BKN110 M06/M16 A2964 RMK AO2 SLP038 4/003 T10611156 11050 21128 56020


Station Type Date Time Source
PAJN Decoded METAR 2020/01/18 23:53 UTC NOAA

JUNEAU INTERNATIONAL AIRPORT, AK, United States (PAJN) 58-21N 134-34W 8M
Jan 18, 2020 - 06:53 PM EST / 2020.01.18 2353 UTC
Wind: Calm:0
Visibility: 10 mile(s):0
Sky conditions: mostly cloudy
Weather: 3 inches of snow on ground
Temperature: 21.0 F (-6.1 C)
Dew Point: 3.9 F (-15.6 C)
Relative Humidity: 46%
Pressure (altimeter): 29.64 in. Hg (1003 hPa)
Pressure tendency: 0.06 inches (2.0 hPa) lower than three hours ago
ob: PAJN 182353Z 00000KT 10SM SCT070 BKN110 M06/M16 A2964 RMK AO2 SLP038 4/003 T10611156 11050 21128 56020
cycle: 0

Station Type Date Time Source
PAJN TAF 2020/01/18 18:30 UTC NOAA

TAF PAJN 181728Z 1818/1918 VRB05KT P6SM BKN080 WS015/06030KT
TEMPO 1820/1824 10010G18KT
FM190000 11008G18KT P6SM BKN090 WS015/06030KT
FM190400 09004KT 4SM -SN BKN015 OVC030
FM190700 10004KT 1SM -SN BR OVC007
FM191200 11006KT 4SM -SN BR SCT003 OVC007

Example: see airport list